Time;durP1;ratioP1;P1;durP2;ratioP2;P2;SDS_P1;SDS_P2;PMS_P1;PMS_P2;Temp;Humidity;BMP_temperature;BMP_pressure;BME280_temperature;BME280_humidity;BME280_pressure;Samples;Min_cycle;Max_cycle;Signal;HPM_P1;HPM_P2
2022/05/20 00:01:24;;;;;;;7.43;3.08;;;;;;;;;;4994816;28;20378;-68
2022/05/20 00:04:29;;;;;;;12.80;3.28;;;;;;;;;;4994825;28;20050;-68
2022/05/20 00:07:34;;;;;;;9.88;2.95;;;;;;;;;;4994719;28;20041;-68
2022/05/20 00:10:38;;;;;;;10.18;3.33;;;;;;;;;;4994953;28;20043;-68
2022/05/20 00:13:43;;;;;;;9.45;3.10;;;;;;;;;;4995212;28;20046;-68
2022/05/20 00:16:48;;;;;;;7.03;2.90;;;;;;;;;;4994340;28;20034;-68
2022/05/20 00:19:52;;;;;;;9.95;3.05;;;;;;;;;;4995059;28;20042;-68
2022/05/20 00:22:57;;;;;;;11.80;3.15;;;;;;;;;;4995070;28;20509;-68
2022/05/20 00:26:02;;;;;;;12.95;4.60;;;;;;;;;;4995095;28;20045;-68
2022/05/20 00:29:06;;;;;;;14.38;4.18;;;;;;;;;;5005302;28;20694;-67
2022/05/20 00:32:11;;;;;;;14.98;3.70;;;;;;;;;;5005464;28;20041;-68
2022/05/20 00:35:15;;;;;;;15.45;3.78;;;;;;;;;;4994955;28;20053;-68
2022/05/20 00:38:20;;;;;;;9.75;4.05;;;;;;;;;;4994815;28;20073;-68
2022/05/20 00:41:24;;;;;;;11.25;3.88;;;;;;;;;;5005082;28;20473;-68
2022/05/20 00:44:29;;;;;;;10.05;4.25;;;;;;;;;;4994305;28;20049;-68
2022/05/20 00:47:33;;;;;;;11.27;3.88;;;;;;;;;;4994418;28;20053;-68
2022/05/20 00:50:39;;;;;;;13.02;3.60;;;;;;;;;;4994396;28;20504;-68
2022/05/20 00:54:16;;;;;;;11.18;4.43;;;;;;;;;;4994351;28;20037;-68
2022/05/20 00:57:25;;;;;;;15.65;4.55;;;;;;;;;;4971990;28;20413;-68
2022/05/20 01:00:30;;;;;;;12.98;4.43;;;;;;;;;;4994395;28;20045;-68
2022/05/20 01:03:36;;;;;;;17.20;4.47;;;;;;;;;;4994145;28;20045;-67
2022/05/20 01:06:40;;;;;;;19.77;4.30;;;;;;;;;;4994300;28;20045;-68
2022/05/20 01:09:48;;;;;;;11.20;3.88;;;;;;;;;;5003623;28;20058;-68
2022/05/20 01:12:52;;;;;;;16.95;4.18;;;;;;;;;;4993861;28;20053;-68
2022/05/20 01:15:57;;;;;;;10.40;3.60;;;;;;;;;;4993695;28;20045;-68
2022/05/20 01:19:01;;;;;;;6.95;3.50;;;;;;;;;;4994103;28;20050;-68
2022/05/20 01:22:06;;;;;;;7.68;3.60;;;;;;;;;;4993793;28;20042;-68
2022/05/20 01:25:11;;;;;;;11.80;4.63;;;;;;;;;;4993695;28;20046;-68
2022/05/20 01:28:16;;;;;;;17.48;4.07;;;;;;;;;;4993885;28;20488;-68
2022/05/20 01:31:20;;;;;;;11.77;3.95;;;;;;;;;;4993573;28;20042;-68
2022/05/20 01:34:25;;;;;;;12.32;3.38;;;;;;;;;;4993579;28;20410;-68
2022/05/20 01:37:29;;;;;;;7.30;3.25;;;;;;;;;;4993779;28;20053;-68
2022/05/20 01:40:55;;;;;;;12.55;4.63;;;;;;;;;;4993675;28;20038;-68
2022/05/20 01:44:08;;;;;;;14.98;3.90;;;;;;;;;;4993062;28;20069;-68
2022/05/20 01:47:30;;;;;;;10.75;3.65;;;;;;;;;;4993483;28;20049;-68
2022/05/20 01:50:38;;;;;;;10.95;3.67;;;;;;;;;;4993475;28;20049;-67
2022/05/20 01:53:46;;;;;;;8.38;4.20;;;;;;;;;;4993240;28;20057;-68
2022/05/20 01:56:57;;;;;;;12.20;4.32;;;;;;;;;;4993075;28;20038;-68
2022/05/20 02:00:13;;;;;;;10.10;3.58;;;;;;;;;;4993156;28;20057;-68
2022/05/20 02:03:22;;;;;;;7.38;3.55;;;;;;;;;;4992994;28;20045;-68
2022/05/20 02:06:41;;;;;;;12.48;3.78;;;;;;;;;;4992744;28;20035;-68
2022/05/20 02:09:48;;;;;;;8.48;3.60;;;;;;;;;;4992834;28;20386;-68
2022/05/20 02:12:54;;;;;;;16.20;3.45;;;;;;;;;;4992857;28;20042;-68
2022/05/20 02:16:23;;;;;;;8.57;3.85;;;;;;;;;;4993011;28;20057;-68
2022/05/20 02:19:37;;;;;;;8.10;3.75;;;;;;;;;;4992956;28;20038;-68
2022/05/20 02:22:45;;;;;;;10.52;3.92;;;;;;;;;;4992843;28;20050;-68
2022/05/20 02:25:51;;;;;;;8.10;3.53;;;;;;;;;;4992492;28;20041;-68
2022/05/20 02:29:01;;;;;;;11.65;3.20;;;;;;;;;;4992669;28;20047;-67
2022/05/20 02:32:05;;;;;;;6.22;2.95;;;;;;;;;;5002879;28;20062;-67
2022/05/20 02:35:09;;;;;;;10.00;3.38;;;;;;;;;;4992251;28;20034;-68
2022/05/20 02:38:18;;;;;;;8.23;3.13;;;;;;;;;;4992554;28;20049;-68
2022/05/20 02:41:23;;;;;;;7.35;3.08;;;;;;;;;;4992537;28;20046;-67
2022/05/20 02:44:27;;;;;;;10.80;3.72;;;;;;;;;;4992437;28;20050;-68
2022/05/20 02:47:32;;;;;;;9.25;3.35;;;;;;;;;;4992327;28;20049;-67
2022/05/20 02:50:37;;;;;;;10.40;3.85;;;;;;;;;;4992178;28;20046;-68
2022/05/20 02:53:42;;;;;;;6.70;3.58;;;;;;;;;;4991978;28;20405;-68
2022/05/20 02:56:46;;;;;;;13.50;3.80;;;;;;;;;;4992085;28;20038;-68
2022/05/20 03:06:40;;;;;;;26.13;9.82;;;;;;;;;;4991833;28;20034;-68
2022/05/20 03:09:45;;;;;;;18.70;7.05;;;;;;;;;;4991644;28;20058;-68
2022/05/20 03:12:49;;;;;;;27.52;12.15;;;;;;;;;;4992095;28;20045;-68
2022/05/20 03:15:53;;;;;;;24.38;11.73;;;;;;;;;;4991974;28;20045;-68
2022/05/20 03:18:58;;;;;;;26.20;9.20;;;;;;;;;;4991887;28;20064;-68
2022/05/20 03:22:03;;;;;;;20.23;7.85;;;;;;;;;;4991947;28;20049;-68
2022/05/20 03:25:07;;;;;;;76.90;10.40;;;;;;;;;;4991876;28;20051;-67
2022/05/20 03:28:12;;;;;;;26.80;8.77;;;;;;;;;;4991638;28;20050;-68
2022/05/20 03:31:16;;;;;;;26.38;9.30;;;;;;;;;;4993971;28;20057;-67
2022/05/20 03:34:21;;;;;;;14.95;6.88;;;;;;;;;;4998001;28;20389;-68
2022/05/20 03:37:25;;;;;;;28.08;7.57;;;;;;;;;;4997372;28;20053;-68
2022/05/20 03:40:30;;;;;;;120.03;12.00;;;;;;;;;;4998080;28;20064;-68
2022/05/20 03:43:34;;;;;;;99.53;12.32;;;;;;;;;;4997243;28;20049;-67
2022/05/20 03:46:52;;;;;;;40.28;8.95;;;;;;;;;;4997167;28;20532;-68
2022/05/20 03:49:56;;;;;;;22.27;5.78;;;;;;;;;;4997920;28;20061;-68
2022/05/20 03:53:00;;;;;;;19.70;6.55;;;;;;;;;;4998201;28;20504;-68
2022/05/20 03:56:05;;;;;;;24.60;6.80;;;;;;;;;;4998171;28;20041;-68
2022/05/20 03:59:10;;;;;;;13.25;5.90;;;;;;;;;;4997968;28;20049;-68
2022/05/20 04:02:14;;;;;;;12.68;6.00;;;;;;;;;;4997825;28;20042;-68
2022/05/20 04:05:19;;;;;;;20.70;5.03;;;;;;;;;;4997623;28;20070;-67
2022/05/20 04:08:23;;;;;;;10.45;4.35;;;;;;;;;;4997876;28;20038;-68
2022/05/20 04:11:28;;;;;;;14.00;4.60;;;;;;;;;;4997884;28;20057;-68
2022/05/20 04:14:33;;;;;;;8.65;4.53;;;;;;;;;;4997962;28;20087;-68
2022/05/20 04:17:37;;;;;;;8.52;4.03;;;;;;;;;;4997915;28;20046;-68
2022/05/20 04:20:42;;;;;;;9.80;3.70;;;;;;;;;;5008264;28;20050;-68
2022/05/20 04:23:46;;;;;;;11.10;4.10;;;;;;;;;;4997760;28;20038;-68
2022/05/20 04:26:52;;;;;;;10.65;4.53;;;;;;;;;;4996876;28;20524;-68
2022/05/20 04:29:56;;;;;;;15.38;4.53;;;;;;;;;;4996672;28;20049;-68
2022/05/20 04:33:01;;;;;;;14.93;4.03;;;;;;;;;;4997557;28;20424;-68
2022/05/20 04:36:06;;;;;;;11.23;3.90;;;;;;;;;;4997895;28;20053;-68
2022/05/20 04:39:11;;;;;;;20.17;4.80;;;;;;;;;;4997299;28;20469;-68
2022/05/20 04:49:10;;;;;;;20.65;5.22;;;;;;;;;;4994062;28;20557;-68
2022/05/20 04:52:14;;;;;;;26.08;4.57;;;;;;;;;;4994433;28;20041;-68
2022/05/20 04:55:19;;;;;;;14.48;4.57;;;;;;;;;;4994144;28;20061;-68
2022/05/20 04:58:23;;;;;;;11.75;4.15;;;;;;;;;;4994131;28;20046;-68
2022/05/20 05:01:28;;;;;;;19.63;4.47;;;;;;;;;;4994251;28;20397;-68
2022/05/20 05:04:32;;;;;;;21.73;4.05;;;;;;;;;;4994222;28;20057;-68
2022/05/20 05:07:38;;;;;;;16.20;4.63;;;;;;;;;;4994152;28;20235;-68
2022/05/20 05:10:42;;;;;;;17.60;4.15;;;;;;;;;;4993923;28;20417;-68
2022/05/20 05:13:46;;;;;;;13.43;4.22;;;;;;;;;;4993938;28;20045;-68
2022/05/20 05:16:50;;;;;;;18.60;3.90;;;;;;;;;;4993778;28;20395;-68
2022/05/20 05:19:55;;;;;;;12.35;3.50;;;;;;;;;;4993647;28;20044;-68
2022/05/20 05:23:00;;;;;;;14.75;4.68;;;;;;;;;;4993906;28;20410;-67
2022/05/20 05:26:08;;;;;;;14.98;4.55;;;;;;;;;;4993479;28;20037;-67
2022/05/20 05:29:12;;;;;;;16.35;6.07;;;;;;;;;;4993676;28;20043;-67
2022/05/20 05:32:17;;;;;;;17.50;5.97;;;;;;;;;;4993584;28;20621;-66
2022/05/20 05:35:23;;;;;;;19.63;6.00;;;;;;;;;;4993453;28;20418;-66
2022/05/20 05:38:27;;;;;;;16.65;5.13;;;;;;;;;;4993625;28;20054;-66
2022/05/20 05:41:31;;;;;;;30.70;5.47;;;;;;;;;;4993426;28;20045;-66
2022/05/20 05:44:39;;;;;;;19.33;5.60;;;;;;;;;;4993264;28;20049;-66
2022/05/20 05:47:45;;;;;;;31.67;6.97;;;;;;;;;;4993119;28;20106;-66
2022/05/20 05:50:49;;;;;;;25.85;5.70;;;;;;;;;;4992863;28;20061;-66
2022/05/20 05:53:53;;;;;;;21.40;5.50;;;;;;;;;;4992663;28;20655;-66
2022/05/20 05:56:58;;;;;;;18.65;5.38;;;;;;;;;;4992981;28;20058;-65
2022/05/20 06:00:03;;;;;;;16.75;5.70;;;;;;;;;;4993232;28;20053;-65
2022/05/20 06:03:16;;;;;;;20.70;5.85;;;;;;;;;;4992673;28;20045;-65
2022/05/20 06:06:24;;;;;;;25.92;6.40;;;;;;;;;;4992941;28;20053;-66
2022/05/20 06:09:28;;;;;;;20.40;6.22;;;;;;;;;;4992890;28;20053;-65
2022/05/20 06:12:33;;;;;;;29.80;7.25;;;;;;;;;;4992595;28;20049;-66
2022/05/20 06:15:38;;;;;;;737.50;81.07;;;;;;;;;;4992415;28;20049;-63
2022/05/20 06:18:42;;;;;;;283.02;28.33;;;;;;;;;;5002728;28;20508;-68
2022/05/20 06:21:47;;;;;;;48.05;8.48;;;;;;;;;;4992250;28;20398;-69
2022/05/20 06:24:51;;;;;;;19.30;6.22;;;;;;;;;;4992421;28;20057;-68
2022/05/20 06:27:55;;;;;;;65.40;11.13;;;;;;;;;;4992732;28;20049;-68
2022/05/20 06:31:00;;;;;;;42.47;7.25;;;;;;;;;;4992309;28;20053;-67
2022/05/20 06:34:04;;;;;;;32.90;7.80;;;;;;;;;;4992441;28;20038;-66
2022/05/20 06:40:32;;;;;;;36.83;6.43;;;;;;;;;;4992252;28;20049;-71
2022/05/20 06:43:38;;;;;;;21.40;5.25;;;;;;;;;;4991319;28;20140;-70
2022/05/20 06:46:42;;;;;;;27.35;5.63;;;;;;;;;;5002866;28;20057;-69
2022/05/20 06:49:46;;;;;;;253.68;23.73;;;;;;;;;;4991886;28;20265;-70
2022/05/20 06:52:50;;;;;;;77.90;9.63;;;;;;;;;;5002729;28;20061;-69
2022/05/20 06:55:55;;;;;;;43.90;7.40;;;;;;;;;;4992223;28;20394;-70
2022/05/20 06:59:00;;;;;;;24.60;5.40;;;;;;;;;;4992064;28;20061;-70
2022/05/20 07:02:04;;;;;;;21.90;4.82;;;;;;;;;;4992030;28;20041;-70
2022/05/20 07:05:09;;;;;;;21.73;5.18;;;;;;;;;;4991256;28;20050;-70
2022/05/20 07:08:13;;;;;;;20.00;4.65;;;;;;;;;;4991671;28;20062;-70
2022/05/20 07:11:19;;;;;;;21.75;4.30;;;;;;;;;;4991321;28;20197;-71
2022/05/20 07:14:23;;;;;;;17.60;4.07;;;;;;;;;;5002407;28;20049;-69
2022/05/20 07:17:28;;;;;;;14.48;4.28;;;;;;;;;;4990940;28;20045;-68
2022/05/20 07:20:32;;;;;;;18.95;4.53;;;;;;;;;;4991166;28;20049;-68
2022/05/20 07:23:36;;;;;;;25.08;4.43;;;;;;;;;;5002130;28;20504;-67
2022/05/20 07:26:41;;;;;;;13.80;3.65;;;;;;;;;;4991123;28;20402;-67
2022/05/20 07:29:45;;;;;;;25.48;4.18;;;;;;;;;;4991340;28;20053;-67
2022/05/20 07:32:49;;;;;;;26.77;5.15;;;;;;;;;;4991731;28;20390;-67
2022/05/20 07:35:54;;;;;;;17.13;3.67;;;;;;;;;;4991629;28;20054;-67
2022/05/20 07:38:57;;;;;;;15.60;3.22;;;;;;;;;;4990760;28;20065;-69
2022/05/20 07:42:02;;;;;;;15.60;3.05;;;;;;;;;;4991354;28;20045;-67
2022/05/20 07:45:08;;;;;;;18.58;3.58;;;;;;;;;;4991273;28;20057;-73
2022/05/20 07:48:12;;;;;;;14.40;3.15;;;;;;;;;;4990670;28;20065;-71
2022/05/20 07:51:18;;;;;;;13.20;3.60;;;;;;;;;;4990383;28;20054;-74
2022/05/20 07:54:24;;;;;;;20.65;3.85;;;;;;;;;;4991462;28;20065;-76
2022/05/20 07:57:28;;;;;;;13.32;3.67;;;;;;;;;;5001924;28;20057;-78
2022/05/20 08:00:33;;;;;;;12.52;3.85;;;;;;;;;;4991591;28;20508;-71
2022/05/20 08:07:02;;;;;;;17.23;4.68;;;;;;;;;;5001307;28;20041;-72
2022/05/20 08:10:08;;;;;;;20.90;3.90;;;;;;;;;;4991368;28;20045;-71
2022/05/20 08:13:12;;;;;;;17.33;4.18;;;;;;;;;;4991322;28;20049;-72
2022/05/20 08:16:18;;;;;;;20.88;4.18;;;;;;;;;;5001763;28;20038;-71
2022/05/20 08:19:22;;;;;;;18.30;4.00;;;;;;;;;;4994927;28;20053;-71
2022/05/20 08:22:26;;;;;;;26.67;3.63;;;;;;;;;;5005385;28;20406;-72
2022/05/20 08:25:30;;;;;;;12.73;2.70;;;;;;;;;;4994827;28;20053;-72
2022/05/20 08:28:35;;;;;;;15.43;3.40;;;;;;;;;;4994783;28;20042;-72
2022/05/20 08:31:40;;;;;;;11.77;2.85;;;;;;;;;;5004789;28;20049;-72
2022/05/20 08:34:44;;;;;;;8.98;2.67;;;;;;;;;;4993888;28;20430;-72
2022/05/20 08:37:49;;;;;;;6.55;2.33;;;;;;;;;;4994934;28;20479;-72
2022/05/20 08:40:53;;;;;;;17.30;2.88;;;;;;;;;;4994676;28;20042;-71
2022/05/20 08:43:58;;;;;;;10.27;2.67;;;;;;;;;;4993186;28;20049;-72
2022/05/20 08:47:13;;;;;;;9.90;2.72;;;;;;;;;;4994415;28;20418;-72
2022/05/20 08:50:20;;;;;;;13.48;2.95;;;;;;;;;;4994308;28;20054;-72
2022/05/20 08:53:29;;;;;;;9.75;2.28;;;;;;;;;;4994262;28;20049;-73
2022/05/20 08:56:37;;;;;;;11.43;2.67;;;;;;;;;;4993188;28;20042;-73
2022/05/20 08:59:41;;;;;;;7.05;2.72;;;;;;;;;;5004565;28;20057;-73
2022/05/20 09:02:45;;;;;;;9.82;2.92;;;;;;;;;;4994084;28;20042;-72
2022/05/20 09:06:01;;;;;;;12.55;2.35;;;;;;;;;;4994151;28;20501;-66
2022/05/20 09:09:08;;;;;;;10.40;3.33;;;;;;;;;;4994095;28;20386;-68
2022/05/20 09:12:24;;;;;;;10.18;2.78;;;;;;;;;;4994162;28;20053;-67
2022/05/20 09:15:43;;;;;;;8.35;2.28;;;;;;;;;;4993688;28;20041;-66
2022/05/20 09:18:48;;;;;;;5.85;2.15;;;;;;;;;;4994112;28;20038;-69
2022/05/20 09:22:14;;;;;;;11.35;2.28;;;;;;;;;;4994070;28;20363;-68
2022/05/20 09:25:23;;;;;;;14.70;3.10;;;;;;;;;;4993914;28;20493;-69
2022/05/20 09:28:40;;;;;;;9.43;3.13;;;;;;;;;;4993397;28;20057;-68
2022/05/20 09:31:49;;;;;;;15.82;3.30;;;;;;;;;;4993742;28;20047;-68
2022/05/20 09:35:02;;;;;;;13.30;2.92;;;;;;;;;;4993475;28;20049;-68
2022/05/20 09:38:29;;;;;;;11.45;3.20;;;;;;;;;;4993607;28;20042;-68
2022/05/20 09:41:33;;;;;;;11.57;2.92;;;;;;;;;;5003577;28;20054;-68
2022/05/20 09:44:39;;;;;;;10.27;2.50;;;;;;;;;;5003567;28;20061;-65
2022/05/20 09:47:50;;;;;;;7.22;2.65;;;;;;;;;;4993145;28;20045;-66
2022/05/20 09:51:04;;;;;;;12.10;3.08;;;;;;;;;;4992913;28;20043;-66
2022/05/20 09:54:27;;;;;;;17.20;2.95;;;;;;;;;;4992829;28;20053;-66
2022/05/20 09:57:40;;;;;;;16.30;3.88;;;;;;;;;;4992027;28;20049;-70
2022/05/20 10:00:53;;;;;;;14.23;3.10;;;;;;;;;;4992954;28;20509;-69
2022/05/20 10:04:00;;;;;;;13.07;3.08;;;;;;;;;;4992484;28;20033;-69
2022/05/20 10:07:06;;;;;;;12.85;3.00;;;;;;;;;;4992936;28;20049;-71
2022/05/20 10:10:23;;;;;;;7.50;3.08;;;;;;;;;;4992709;28;20062;-72
2022/05/20 10:13:41;;;;;;;12.85;3.00;;;;;;;;;;4992980;28;20035;-71
2022/05/20 10:16:52;;;;;;;10.43;3.22;;;;;;;;;;4992915;28;20049;-70
2022/05/20 10:20:20;;;;;;;5.78;2.47;;;;;;;;;;4992526;28;20453;-74
2022/05/20 10:23:29;;;;;;;8.00;3.05;;;;;;;;;;4992753;28;20038;-69
2022/05/20 10:26:39;;;;;;;13.27;3.00;;;;;;;;;;4992468;28;20046;-68
2022/05/20 10:37:47;;;;;;;7.20;2.50;;;;;;;;;;5490561;22;20031;-68
2022/05/20 10:40:55;;;;;;;8.18;2.75;;;;;;;;;;5029230;28;20064;-69
2022/05/20 10:51:16;;;;;;;10.55;2.65;;;;;;;;;;5031390;28;20056;-72
2022/05/20 10:54:39;;;;;;;9.70;3.05;;;;;;;;;;5031707;28;20364;-73
2022/05/20 10:58:06;;;;;;;11.10;2.97;;;;;;;;;;5031284;28;20033;-74
2022/05/20 11:01:23;;;;;;;9.45;2.83;;;;;;;;;;5030703;28;20511;-74
2022/05/20 11:04:33;;;;;;;9.10;3.30;;;;;;;;;;5030011;28;20409;-74
2022/05/20 11:07:44;;;;;;;12.80;2.92;;;;;;;;;;5031000;28;20049;-73
2022/05/20 11:11:07;;;;;;;11.80;4.40;;;;;;;;;;5031128;28;20056;-74
2022/05/20 11:14:21;;;;;;;8.73;3.33;;;;;;;;;;5031386;28;20040;-74
2022/05/20 11:17:38;;;;;;;15.75;3.50;;;;;;;;;;5030575;28;20496;-74
2022/05/20 11:20:48;;;;;;;10.88;2.90;;;;;;;;;;5031130;28;20048;-74
2022/05/20 11:23:58;;;;;;;11.57;3.28;;;;;;;;;;5031106;28;20049;-74
2022/05/20 11:27:13;;;;;;;12.75;3.28;;;;;;;;;;5031368;28;20528;-74
2022/05/20 11:30:36;;;;;;;17.63;3.03;;;;;;;;;;5031204;28;20048;-73
2022/05/20 11:34:09;;;;;;;12.13;2.80;;;;;;;;;;5031038;28;20045;-74
2022/05/20 11:37:16;;;;;;;8.68;2.47;;;;;;;;;;5031015;28;20037;-74
2022/05/20 11:56:52;;;;;;;11.38;3.17;;;29.30;45.50;;;;;;5129249;27;20408;-71
2022/05/20 12:00:04;;;;;;;12.32;3.47;;;29.20;46.30;;;;;;5129809;28;20035;-72
2022/05/20 12:03:17;;;;;;;5.75;2.05;;;29.20;45.90;;;;;;5129264;28;20050;-72
2022/05/20 12:06:25;;;;;;;8.43;2.73;;;29.10;46.40;;;;;;5129179;28;20352;-72
2022/05/20 12:09:46;;;;;;;12.05;2.78;;;29.10;46.20;;;;;;5129399;27;20047;-70
2022/05/20 12:13:24;;;;;;;14.65;3.10;;;29.10;46.10;;;;;;5129362;28;20066;-71
2022/05/20 12:16:28;;;;;;;6.82;2.10;;;29.10;46.10;;;;;;5129291;28;20042;-72
2022/05/20 12:26:57;;;;;;;7.35;2.58;;;29.00;45.60;;;;;;5129191;28;20046;-71
2022/05/20 12:30:07;;;;;;;12.90;2.50;;;29.00;45.60;;;;;;5128716;28;20039;-70
2022/05/20 12:33:26;;;;;;;6.13;1.77;;;28.90;45.60;;;;;;5128643;28;20501;-71
2022/05/20 12:36:30;;;;;;;10.60;2.40;;;28.90;46.30;;;;;;5128776;28;20058;-71
2022/05/20 12:39:51;;;;;;;5.63;2.13;;;28.80;46.30;;;;;;5128686;27;20062;-71
2022/05/20 12:43:05;;;;;;;5.80;2.03;;;28.80;46.00;;;;;;5128563;27;20040;-70
2022/05/20 12:46:18;;;;;;;4.53;1.60;;;28.80;45.40;;;;;;5128227;28;20039;-70
2022/05/20 12:49:26;;;;;;;6.53;2.13;;;28.70;46.10;;;;;;5128773;27;20502;-71
2022/05/20 12:52:45;;;;;;;9.55;4.35;;;28.60;46.00;;;;;;5128749;27;20027;-72
2022/05/20 12:55:50;;;;;;;8.57;2.30;;;28.60;46.80;;;;;;5123370;28;20384;-73
2022/05/20 12:59:12;;;;;;;7.03;2.20;;;28.60;47.50;;;;;;5114868;28;20027;-71
2022/05/20 13:02:20;;;;;;;7.47;2.60;;;28.60;48.30;;;;;;5115227;28;20039;-72
2022/05/20 13:05:36;;;;;;;8.25;1.90;;;28.50;48.70;;;;;;5114459;28;20043;-71
2022/05/20 13:08:51;;;;;;;11.63;2.17;;;28.50;47.40;;;;;;5114360;28;20039;-70
2022/05/20 13:12:03;;;;;;;8.98;2.70;;;28.50;46.80;;;;;;5114561;28;20046;-71
2022/05/20 13:15:08;;;;;;;13.30;2.15;;;28.40;47.60;;;;;;5114459;28;20039;-70
2022/05/20 13:18:19;;;;;;;3.97;1.70;;;28.40;48.30;;;;;;5114259;28;20042;-71
2022/05/20 13:21:27;;;;;;;8.75;1.85;;;28.30;49.60;;;;;;5113655;28;20035;-74
2022/05/20 13:24:36;;;;;;;12.27;2.00;;;28.30;48.70;;;;;;5113400;28;20371;-72
2022/05/20 13:27:49;;;;;;;6.65;1.77;;;28.30;47.50;;;;;;5113558;28;20042;-72
2022/05/20 13:31:07;;;;;;;9.35;2.55;;;28.20;46.80;;;;;;5114259;28;20039;-70
2022/05/20 13:34:15;;;;;;;6.95;2.13;;;28.20;47.60;;;;;;5113721;28;20521;-71
2022/05/20 13:37:30;;;;;;;7.32;2.15;;;28.20;47.30;;;;;;5113804;28;20044;-69
2022/05/20 13:40:40;;;;;;;7.03;1.67;;;28.20;46.30;;;;;;5113867;28;20039;-71
2022/05/20 13:43:44;;;;;;;8.73;2.75;;;28.20;46.50;;;;;;5113115;28;20040;-70
2022/05/20 13:50:15;;;;;;;10.07;2.85;;;28.20;45.70;;;;;;5112783;28;20039;-70
2022/05/20 13:53:19;;;;;;;11.40;2.30;;;28.10;46.60;;;;;;5113757;28;20050;-70
2022/05/20 13:56:35;;;;;;;7.20;2.10;;;28.10;47.20;;;;;;5112464;28;20395;-71
2022/05/20 13:59:41;;;;;;;11.40;3.58;;;28.10;47.40;;;;;;5112807;28;20036;-72
2022/05/20 14:02:52;;;;;;;6.32;2.45;;;28.00;48.30;;;;;;5112961;28;20043;-70
2022/05/20 14:06:12;;;;;;;;;;;28.00;48.30;;;;;;5112715;28;20052;-70
2022/05/20 14:09:16;;;;;;;5.55;2.03;;;27.90;48.60;;;;;;5112589;28;19915;-70
2022/05/20 14:12:25;;;;;;;4.70;1.80;;;28.00;49.10;;;;;;5113537;28;20027;-71
2022/05/20 14:15:29;;;;;;;7.57;2.17;;;28.00;50.50;;;;;;5113140;28;20483;-73
2022/05/20 14:18:44;;;;;;;8.13;2.22;;;27.90;49.50;;;;;;5112345;28;20487;-71
2022/05/20 14:21:50;;;;;;;8.65;2.25;;;27.90;50.50;;;;;;5113460;28;20043;-70
2022/05/20 14:24:56;;;;;;;8.27;2.10;;;27.90;51.10;;;;;;5113282;28;20051;-69
2022/05/20 14:28:34;;;;;;;15.80;3.88;;;27.90;50.90;;;;;;5113101;28;20043;-68
2022/05/20 14:31:47;;;;;;;14.35;2.70;;;27.80;51.80;;;;;;5112900;28;20035;-70
2022/05/20 14:34:55;;;;;;;13.38;2.65;;;27.80;52.50;;;;;;5112606;28;20058;-70
2022/05/20 14:38:03;;;;;;;12.88;3.17;;;27.80;52.50;;;;;;5112904;28;20038;-71
2022/05/20 14:41:13;;;;;;;7.68;2.05;;;27.70;51.80;;;;;;5113090;28;20054;-68
2022/05/20 14:44:18;;;;;;;7.15;2.20;;;27.70;53.20;;;;;;5112298;28;20039;-69
2022/05/20 14:47:28;;;;;;;8.75;2.17;;;27.70;54.20;;;;;;5112751;28;20047;-70
2022/05/20 14:50:34;;;;;;;4.95;2.15;;;27.70;53.90;;;;;;5112410;28;20035;-70
2022/05/20 14:53:43;;;;;;;8.18;2.05;;;27.60;53.70;;;;;;5111730;28;20047;-70
2022/05/20 14:56:48;;;;;;;4.82;2.47;;;27.60;54.20;;;;;;5111958;28;20059;-71
2022/05/20 15:00:09;;;;;;;9.68;2.33;;;27.60;54.60;;;;;;5111955;28;20400;-71
2022/05/20 15:03:13;;;;;;;4.20;2.10;;;27.60;54.70;;;;;;5111251;28;20048;-71
2022/05/20 15:06:21;;;;;;;13.73;2.92;;;27.50;55.10;;;;;;5111235;28;20054;-69
2022/05/20 15:09:36;;;;;;;10.55;2.55;;;27.50;55.00;;;;;;5112341;28;20047;-70
2022/05/20 15:12:40;;;;;;;7.38;2.55;;;27.50;55.60;;;;;;5112019;28;20042;-69
2022/05/20 15:15:48;;;;;;;6.68;2.10;;;27.40;55.60;;;;;;5112005;28;20494;-74
2022/05/20 15:18:52;;;;;;;16.55;4.15;;;27.40;56.30;;;;;;5111803;28;20038;-72
2022/05/20 15:21:57;;;;;;;7.05;2.60;;;27.30;57.00;;;;;;5112074;28;20043;-70
2022/05/20 15:25:01;;;;;;;14.98;3.22;;;27.30;57.50;;;;;;5111978;28;20501;-70
2022/05/20 15:28:47;;;;;;;9.82;2.80;;;27.30;57.60;;;;;;5112104;28;20055;-69
2022/05/20 15:35:00;;;;;;;16.67;3.75;;;27.20;58.60;;;;;;5111626;28;20113;-69
2022/05/20 15:38:10;;;;;;;11.27;2.40;;;27.30;59.50;;;;;;5112593;28;20055;-69
2022/05/20 15:41:14;;;;;;;7.43;3.00;;;27.20;59.90;;;;;;5111386;28;20398;-68
2022/05/20 15:44:18;;;;;;;11.57;2.78;;;27.20;60.20;;;;;;5111447;28;20047;-70
2022/05/20 15:47:24;;;;;;;10.38;3.03;;;27.10;60.30;;;;;;5111602;28;20047;-69
2022/05/20 15:50:27;;;;;;;9.70;2.42;;;27.10;60.00;;;;;;5111575;28;20050;-67
2022/05/20 15:53:32;;;;;;;13.52;2.53;;;27.00;60.20;;;;;;5111921;28;20035;-67
2022/05/20 15:56:36;;;;;;;16.38;3.55;;;27.00;60.40;;;;;;5111855;28;20045;-68
2022/05/20 15:59:41;;;;;;;6.07;2.35;;;27.00;60.10;;;;;;5110804;28;20038;-69
2022/05/20 16:02:46;;;;;;;9.75;2.78;;;27.00;60.10;;;;;;5110754;28;20039;-68
2022/05/20 16:05:52;;;;;;;12.00;2.58;;;26.90;60.80;;;;;;5111115;28;20039;-71
2022/05/20 16:08:58;;;;;;;12.55;3.67;;;26.90;60.60;;;;;;5110420;28;20047;-67
2022/05/20 16:12:03;;;;;;;4.55;2.50;;;26.90;60.20;;;;;;5110610;28;20059;-68
2022/05/20 16:15:07;;;;;;;16.77;2.85;;;26.90;60.40;;;;;;5110923;28;20042;-67
2022/05/20 16:18:12;;;;;;;13.13;3.42;;;26.90;60.80;;;;;;5111037;28;20038;-70
2022/05/20 16:21:17;;;;;;;9.20;2.28;;;26.80;61.00;;;;;;5111487;28;20438;-68
2022/05/20 16:24:21;;;;;;;11.77;2.70;;;26.80;61.00;;;;;;5110637;28;20046;-67
2022/05/20 16:27:26;;;;;;;6.85;2.78;;;26.80;60.40;;;;;;5111317;28;20146;-68
2022/05/20 16:30:30;;;;;;;13.77;3.30;;;26.70;60.40;;;;;;5111012;28;20036;-68
2022/05/20 16:33:34;;;;;;;17.60;3.40;;;26.70;60.40;;;;;;5115203;28;20043;-68
2022/05/20 16:36:39;;;;;;;11.25;2.42;;;26.70;60.00;;;;;;5114245;28;20039;-69
2022/05/20 16:39:44;;;;;;;13.20;3.00;;;26.60;60.20;;;;;;5115065;28;20046;-68
2022/05/20 16:42:47;;;;;;;16.02;4.13;;;26.50;60.40;;;;;;5114855;28;20047;-70
2022/05/20 16:45:52;;;;;;;8.80;3.00;;;26.40;60.80;;;;;;5114614;28;20062;-69
2022/05/20 16:49:01;;;;;;;14.57;3.53;;;26.50;61.10;;;;;;5114660;28;20486;-69
2022/05/20 16:52:08;;;;;;;18.42;3.10;;;26.40;61.40;;;;;;5114827;28;20051;-68
2022/05/20 16:55:18;;;;;;;16.92;3.00;;;26.40;61.40;;;;;;5114285;28;20419;-69
2022/05/20 17:01:47;;;;;;;8.50;2.65;;;26.30;62.00;;;;;;5114268;28;20046;-69
2022/05/20 17:04:51;;;;;;;16.58;2.95;;;26.30;62.30;;;;;;5114422;28;20043;-68
2022/05/20 17:07:55;;;;;;;24.15;3.72;;;26.30;62.70;;;;;;5114517;28;20055;-68
2022/05/20 17:10:59;;;;;;;13.50;2.90;;;26.30;63.10;;;;;;5114185;28;20047;-69
2022/05/20 17:14:09;;;;;;;7.68;3.03;;;26.20;62.60;;;;;;5113063;28;20051;-69
2022/05/20 17:17:13;;;;;;;12.85;3.25;;;26.20;63.00;;;;;;5114121;28;20395;-69
2022/05/20 17:20:17;;;;;;;10.43;2.75;;;26.10;62.90;;;;;;5114051;28;20047;-69
2022/05/20 17:26:44;;;;;;;17.98;3.17;;;26.00;60.70;;;;;;5113744;28;20067;-67
2022/05/20 17:29:49;;;;;;;12.40;2.90;;;26.00;60.80;;;;;;5113934;28;20047;-68
2022/05/20 17:32:53;;;;;;;18.65;3.42;;;26.00;60.70;;;;;;5101029;28;20043;-69
2022/05/20 17:35:57;;;;;;;11.60;3.15;;;25.90;59.60;;;;;;5113716;28;20501;-69
2022/05/20 17:39:01;;;;;;;20.05;3.55;;;25.80;59.10;;;;;;5113531;28;20050;-68
2022/05/20 17:42:06;;;;;;;17.00;4.03;;;25.80;59.70;;;;;;5113259;27;20043;-68
2022/05/20 17:45:11;;;;;;;7.15;3.17;;;25.80;59.40;;;;;;5113376;28;20066;-68
2022/05/20 17:48:16;;;;;;;9.18;2.67;;;25.70;60.10;;;;;;5113798;28;20478;-69
2022/05/20 17:51:21;;;;;;;15.25;4.03;;;25.60;60.50;;;;;;5113581;28;20518;-67
2022/05/20 17:54:25;;;;;;;13.57;4.20;;;25.50;60.90;;;;;;5113179;28;20047;-68
2022/05/20 17:57:30;;;;;;;15.85;4.32;;;25.40;61.30;;;;;;5113538;28;20113;-68
2022/05/20 18:00:34;;;;;;;10.35;4.63;;;25.40;61.50;;;;;;5113211;28;20062;-69
2022/05/20 18:03:38;;;;;;;12.13;3.80;;;25.30;61.40;;;;;;5112900;28;20046;-68
2022/05/20 18:06:43;;;;;;;18.65;4.00;;;25.30;61.90;;;;;;5113019;28;20077;-68
2022/05/20 18:09:47;;;;;;;16.27;3.25;;;25.20;62.30;;;;;;5112896;28;20086;-68
2022/05/20 18:12:54;;;;;;;9.23;3.63;;;25.10;62.10;;;;;;5112963;28;20058;-68
2022/05/20 18:16:00;;;;;;;9.73;3.17;;;25.00;62.30;;;;;;5100432;28;20036;-68
2022/05/20 18:19:04;;;;;;;14.20;3.50;;;24.90;62.60;;;;;;5112784;28;20047;-67
2022/05/20 18:22:11;;;;;;;11.13;3.28;;;24.90;62.90;;;;;;5112601;28;20426;-68
2022/05/20 18:25:17;;;;;;;27.63;4.68;;;24.80;62.90;;;;;;5112280;28;20054;-68
2022/05/20 18:28:26;;;;;;;14.40;3.58;;;24.80;63.40;;;;;;5112665;28;20047;-69
2022/05/20 18:31:30;;;;;;;18.30;3.65;;;24.80;63.70;;;;;;5112542;28;20379;-68
2022/05/20 18:41:19;;;;;;;31.80;3.47;;;24.60;64.10;;;;;;5112015;28;20051;-67
2022/05/20 18:44:22;;;;;;;10.02;3.13;;;24.60;64.30;;;;;;5111291;28;20046;-68
2022/05/20 18:47:27;;;;;;;14.25;3.92;;;24.50;64.30;;;;;;5111166;28;20379;-68
2022/05/20 18:50:31;;;;;;;15.27;3.10;;;24.40;64.60;;;;;;5111680;28;20047;-68
2022/05/20 18:53:36;;;;;;;10.73;3.35;;;24.30;65.30;;;;;;5110783;28;20047;-68